createdAt,value
2019-03-22T00:00:26.740Z,5.85
2019-03-22T00:02:54.516Z,5.79
2019-03-22T00:05:22.368Z,5.70
2019-03-22T00:07:50.039Z,5.63
2019-03-22T00:10:17.650Z,5.57
2019-03-22T00:12:45.358Z,5.52
2019-03-22T00:15:12.969Z,5.45
2019-03-22T00:17:40.549Z,5.42
2019-03-22T00:20:08.319Z,5.35
2019-03-22T00:22:37.907Z,5.28
2019-03-22T00:25:09.879Z,5.24
2019-03-22T00:27:37.577Z,5.17
2019-03-22T00:30:05.793Z,5.11
2019-03-22T00:32:33.513Z,5.10
2019-03-22T00:35:01.384Z,5.20
2019-03-22T00:37:29.009Z,5.30
2019-03-22T00:39:56.626Z,5.28
2019-03-22T00:42:25.504Z,5.24
2019-03-22T00:44:53.080Z,5.35
2019-03-22T00:47:20.670Z,5.48
2019-03-22T00:49:48.283Z,5.48
2019-03-22T00:52:15.874Z,5.47
2019-03-22T00:54:43.432Z,5.45
2019-03-22T00:57:11.077Z,5.45
2019-03-22T00:59:38.651Z,5.52
2019-03-22T01:02:06.263Z,5.46
2019-03-22T01:04:33.880Z,5.37
2019-03-22T01:07:01.514Z,5.31
2019-03-22T01:09:29.094Z,5.20
2019-03-22T01:11:56.679Z,5.11
2019-03-22T01:14:24.304Z,5.06
2019-03-22T01:16:51.909Z,5.07
2019-03-22T01:19:19.466Z,5.05
2019-03-22T01:21:48.964Z,4.99
2019-03-22T01:24:16.582Z,4.96
2019-03-22T01:26:44.187Z,4.91
2019-03-22T01:29:11.799Z,4.95
2019-03-22T01:31:39.379Z,4.95
2019-03-22T01:34:06.955Z,4.87
2019-03-22T01:36:34.593Z,4.81
2019-03-22T01:39:03.740Z,4.78
2019-03-22T01:41:31.425Z,4.82
2019-03-22T01:43:59.344Z,4.86
2019-03-22T01:46:26.990Z,4.88
2019-03-22T01:48:54.563Z,4.83
2019-03-22T01:51:29.387Z,4.71
2019-03-22T01:53:56.970Z,4.59
2019-03-22T01:56:24.547Z,4.54
2019-03-22T01:58:52.137Z,4.54
2019-03-22T02:01:19.782Z,4.50
2019-03-22T02:03:47.363Z,4.44
2019-03-22T02:06:15.199Z,4.41
2019-03-22T02:08:42.814Z,4.40
2019-03-22T02:11:10.402Z,4.50
2019-03-22T02:13:38.030Z,4.55
2019-03-22T02:16:05.644Z,4.40
2019-03-22T02:18:33.224Z,4.32
2019-03-22T02:21:00.877Z,4.28
2019-03-22T02:23:28.638Z,4.24
2019-03-22T02:25:56.308Z,4.20
2019-03-22T02:28:23.897Z,4.20
2019-03-22T02:30:51.859Z,4.22
2019-03-22T02:33:19.436Z,4.20
2019-03-22T02:35:47.034Z,4.22
2019-03-22T02:38:16.439Z,4.21
2019-03-22T02:40:43.995Z,4.19
2019-03-22T02:43:11.575Z,4.15
2019-03-22T02:45:39.208Z,4.25
2019-03-22T02:48:06.785Z,4.43
2019-03-22T02:50:34.367Z,4.54
2019-03-22T02:53:01.975Z,4.50
2019-03-22T02:55:29.598Z,4.43
2019-03-22T02:57:57.185Z,4.34
2019-03-22T03:00:25.043Z,4.33
2019-03-22T03:02:52.610Z,4.30
2019-03-22T03:05:20.187Z,4.33
2019-03-22T03:08:28.166Z,4.48
2019-03-22T03:10:55.728Z,4.51
2019-03-22T03:13:23.299Z,4.45
2019-03-22T03:15:50.884Z,4.40
2019-03-22T03:18:18.449Z,4.50
2019-03-22T03:20:46.036Z,4.53
2019-03-22T03:23:13.665Z,4.56
2019-03-22T03:25:41.292Z,4.61
2019-03-22T03:28:08.872Z,4.69
2019-03-22T03:30:36.447Z,4.72
2019-03-22T03:33:04.058Z,4.77
2019-03-22T03:35:31.633Z,4.79
2019-03-22T03:37:59.214Z,4.74
2019-03-22T03:40:26.829Z,4.68
2019-03-22T03:42:54.498Z,4.59
2019-03-22T03:46:13.678Z,4.51
2019-03-22T03:48:41.285Z,4.43
2019-03-22T03:51:08.858Z,4.38
2019-03-22T03:53:36.447Z,4.38
2019-03-22T03:56:04.069Z,4.34
2019-03-22T03:58:31.656Z,4.29
2019-03-22T04:00:59.221Z,4.27
2019-03-22T04:03:26.831Z,4.27
2019-03-22T04:05:54.415Z,4.28
2019-03-22T04:08:22.001Z,4.24
2019-03-22T04:10:54.620Z,4.20
2019-03-22T04:13:22.189Z,4.19
2019-03-22T04:15:49.870Z,4.23
2019-03-22T04:18:17.483Z,4.29
2019-03-22T04:20:45.063Z,4.35
2019-03-22T04:23:12.891Z,4.37
2019-03-22T04:25:40.506Z,4.43
2019-03-22T04:28:08.095Z,4.47
2019-03-22T04:30:35.698Z,4.53
2019-03-22T04:33:06.379Z,4.59
2019-03-22T04:35:32.902Z,4.65
2019-03-22T04:38:00.578Z,4.71
2019-03-22T04:40:28.633Z,4.76
2019-03-22T04:42:56.304Z,4.83
2019-03-22T04:45:26.330Z,4.92
2019-03-22T04:48:00.361Z,4.98
2019-03-22T04:50:30.062Z,5.03
2019-03-22T04:53:05.062Z,5.08
2019-03-22T04:55:34.289Z,5.16
2019-03-22T04:58:03.426Z,5.23
2019-03-22T05:00:31.999Z,5.30
2019-03-22T05:02:59.910Z,5.37
2019-03-22T05:05:27.481Z,5.42
2019-03-22T05:07:55.606Z,5.49
2019-03-22T05:10:24.902Z,5.54
2019-03-22T05:12:54.692Z,5.58
2019-03-22T05:15:22.804Z,5.65
2019-03-22T05:17:50.991Z,5.70
2019-03-22T05:20:21.291Z,5.76
2019-03-22T05:22:50.480Z,5.77
2019-03-22T05:25:20.498Z,5.79
2019-03-22T05:27:50.081Z,5.81
2019-03-22T05:31:10.380Z,5.79
2019-03-22T05:33:37.963Z,5.81
2019-03-22T05:36:05.536Z,5.82
2019-03-22T05:38:33.312Z,5.83
2019-03-22T05:41:00.887Z,5.78
2019-03-22T05:43:28.480Z,5.77
2019-03-22T05:45:56.113Z,5.75
2019-03-22T05:48:23.712Z,5.71
2019-03-22T05:50:53.443Z,5.73
2019-03-22T05:53:21.023Z,5.74
2019-03-22T05:55:48.606Z,5.74
2019-03-22T05:58:16.363Z,5.75
2019-03-22T06:00:43.954Z,5.76
2019-03-22T06:03:11.527Z,5.76
2019-03-22T06:05:39.143Z,5.76
2019-03-22T06:08:06.739Z,5.78
2019-03-22T06:11:17.762Z,5.78
2019-03-22T06:13:45.384Z,5.77
2019-03-22T06:16:12.960Z,5.77
2019-03-22T06:18:40.569Z,5.79
2019-03-22T06:21:08.144Z,5.79
2019-03-22T06:23:35.743Z,5.81
2019-03-22T06:26:03.428Z,5.77
2019-03-22T06:28:30.985Z,5.75
2019-03-22T06:30:58.599Z,5.73
2019-03-22T06:33:26.307Z,5.73
2019-03-22T06:35:53.880Z,5.73
2019-03-22T06:38:21.703Z,5.75
2019-03-22T06:40:49.314Z,5.77
2019-03-22T06:43:17.042Z,5.76
2019-03-22T06:45:44.681Z,5.76
2019-03-22T06:48:12.794Z,5.79
2019-03-22T06:50:40.390Z,5.84
2019-03-22T06:53:08.119Z,5.90
2019-03-22T06:55:35.713Z,5.94
2019-03-22T06:58:03.317Z,5.93
2019-03-22T07:00:30.976Z,5.93
2019-03-22T07:02:58.587Z,5.93
2019-03-22T07:05:26.212Z,5.93
2019-03-22T07:07:53.927Z,5.97
2019-03-22T07:10:21.560Z,5.99
2019-03-22T07:12:49.217Z,5.99
2019-03-22T07:15:16.874Z,6.01
2019-03-22T07:17:44.469Z,6.04
2019-03-22T07:20:12.084Z,6.03
2019-03-22T07:22:39.725Z,6.08
2019-03-22T07:25:07.704Z,6.10
2019-03-22T07:27:35.358Z,6.10
2019-03-22T07:30:03.510Z,6.14
2019-03-22T07:32:31.119Z,6.18
2019-03-22T07:34:58.709Z,6.23
2019-03-22T07:37:26.346Z,6.30
2019-03-22T07:39:53.978Z,6.37
2019-03-22T07:42:21.656Z,6.47
2019-03-22T07:44:49.289Z,6.56
2019-03-22T07:47:16.908Z,6.60
2019-03-22T07:49:44.510Z,6.73
2019-03-22T07:52:12.147Z,6.82
2019-03-22T07:54:39.783Z,6.88
2019-03-22T07:57:07.386Z,6.92
2019-03-22T07:59:34.960Z,6.96
2019-03-22T08:02:02.679Z,7.00
2019-03-22T08:04:30.407Z,7.05
2019-03-22T08:06:58.118Z,7.13
2019-03-22T08:09:25.744Z,7.18
2019-03-22T08:11:53.331Z,7.28
2019-03-22T08:14:20.921Z,7.37
2019-03-22T08:16:48.591Z,7.49
2019-03-22T08:19:16.152Z,7.58
2019-03-22T08:21:43.749Z,7.72
2019-03-22T08:24:11.370Z,7.80
2019-03-22T08:26:39.006Z,7.90
2019-03-22T08:29:06.649Z,7.99
2019-03-22T08:31:34.285Z,8.10
2019-03-22T08:34:01.880Z,8.20
2019-03-22T08:36:29.435Z,8.29
2019-03-22T08:38:57.091Z,8.41
2019-03-22T08:41:24.747Z,8.51
2019-03-22T08:43:52.372Z,8.66
2019-03-22T08:46:19.920Z,8.78
2019-03-22T08:48:49.650Z,8.87
2019-03-22T08:51:17.536Z,9.02
2019-03-22T08:53:54.703Z,9.15
2019-03-22T08:56:14.740Z,9.29
2019-03-22T08:58:42.339Z,9.44
2019-03-22T09:01:09.962Z,9.52
2019-03-22T09:03:37.554Z,9.59
2019-03-22T09:06:07.743Z,9.72
2019-03-22T09:08:34.752Z,9.83
2019-03-22T09:11:02.522Z,9.97
2019-03-22T09:13:30.103Z,10.07
2019-03-22T09:15:57.767Z,10.12
2019-03-22T09:18:25.389Z,10.19
2019-03-22T09:20:52.998Z,10.22
2019-03-22T09:23:20.676Z,10.28
2019-03-22T09:25:48.270Z,10.38
2019-03-22T09:28:15.936Z,10.49
2019-03-22T09:30:43.536Z,10.53
2019-03-22T09:33:13.394Z,10.56
2019-03-22T09:35:40.611Z,10.57
2019-03-22T09:38:13.065Z,10.73
2019-03-22T09:40:37.790Z,10.80
2019-03-22T09:43:05.333Z,10.87
2019-03-22T09:45:32.904Z,10.93
2019-03-22T09:48:00.557Z,11.08
2019-03-22T09:50:28.167Z,11.16
2019-03-22T09:52:55.711Z,11.21
2019-03-22T09:55:23.339Z,11.29
2019-03-22T09:57:50.914Z,11.36
2019-03-22T10:00:28.973Z,11.43
2019-03-22T10:02:56.545Z,11.51
2019-03-22T10:05:24.225Z,11.66
2019-03-22T10:07:51.933Z,11.79
2019-03-22T10:10:19.486Z,11.92
2019-03-22T10:12:47.522Z,12.08
2019-03-22T10:15:15.156Z,12.24
2019-03-22T10:17:42.728Z,12.50
2019-03-22T10:20:10.513Z,12.71
2019-03-22T10:22:38.154Z,12.76
2019-03-22T10:25:06.292Z,12.78
2019-03-22T10:27:33.885Z,12.90
2019-03-22T10:30:01.544Z,13.06
2019-03-22T10:32:29.131Z,13.42
2019-03-22T10:34:57.838Z,13.48
2019-03-22T10:37:25.446Z,13.64
2019-03-22T10:39:53.056Z,13.74
2019-03-22T10:42:20.720Z,13.78
2019-03-22T10:44:48.339Z,13.77
2019-03-22T10:47:18.039Z,13.91
2019-03-22T10:49:45.559Z,14.11
2019-03-22T10:52:14.169Z,14.17
2019-03-22T10:54:42.156Z,14.40
2019-03-22T10:57:09.747Z,14.61
2019-03-22T10:59:37.357Z,14.79
2019-03-22T11:02:07.694Z,14.92
2019-03-22T11:04:34.612Z,14.89
2019-03-22T11:07:02.220Z,15.12
2019-03-22T11:09:29.862Z,15.33
2019-03-22T11:12:16.325Z,15.49
2019-03-22T11:14:45.704Z,15.62
2019-03-22T11:17:13.401Z,15.59
2019-03-22T11:19:41.030Z,15.53
2019-03-22T11:22:11.913Z,15.64
2019-03-22T11:24:39.478Z,15.82
2019-03-22T11:27:07.105Z,15.99
2019-03-22T11:29:34.746Z,16.18
2019-03-22T11:32:12.080Z,16.25
2019-03-22T11:34:31.857Z,16.26
2019-03-22T11:37:03.359Z,16.34
2019-03-22T11:39:30.992Z,16.45
2019-03-22T11:41:59.168Z,16.57
2019-03-22T11:44:28.452Z,16.64
2019-03-22T11:46:56.039Z,16.80
2019-03-22T11:49:23.660Z,16.92
2019-03-22T11:51:51.247Z,17.01
2019-03-22T11:54:18.843Z,17.07
2019-03-22T11:56:46.579Z,17.19
2019-03-22T11:59:14.143Z,17.34
2019-03-22T12:01:41.719Z,17.53
2019-03-22T12:04:09.334Z,17.64
2019-03-22T12:06:36.904Z,17.64
2019-03-22T12:09:08.089Z,17.58
2019-03-22T12:11:35.723Z,17.84
2019-03-22T12:14:03.311Z,18.03
2019-03-22T12:16:30.908Z,18.02
2019-03-22T12:18:58.644Z,18.02
2019-03-22T12:21:26.237Z,18.16
2019-03-22T12:23:53.931Z,18.30
2019-03-22T12:26:22.048Z,18.34
2019-03-22T12:28:49.730Z,18.41
2019-03-22T12:31:19.374Z,18.63
2019-03-22T12:33:46.795Z,18.68
2019-03-22T12:36:14.401Z,18.85
2019-03-22T12:38:42.018Z,18.84
2019-03-22T12:41:17.358Z,18.93
2019-03-22T12:43:44.947Z,19.22
2019-03-22T12:46:12.568Z,19.26
2019-03-22T12:48:40.274Z,19.38
2019-03-22T12:51:07.859Z,19.73
2019-03-22T12:53:35.428Z,20.05
2019-03-22T12:56:03.168Z,20.38
2019-03-22T12:58:30.761Z,20.73
2019-03-22T13:00:59.085Z,20.93
2019-03-22T13:03:26.713Z,21.17
2019-03-22T13:05:54.417Z,21.48
2019-03-22T13:08:22.075Z,21.68
2019-03-22T13:10:49.698Z,21.94
2019-03-22T13:13:17.412Z,22.24
2019-03-22T13:15:51.272Z,22.40
2019-03-22T13:18:18.898Z,22.66
2019-03-22T13:20:46.495Z,22.80
2019-03-22T13:23:14.062Z,23.07
2019-03-22T13:25:41.675Z,23.35
2019-03-22T13:28:09.646Z,23.41
2019-03-22T13:30:37.247Z,23.36
2019-03-22T13:33:05.425Z,23.42
2019-03-22T13:35:33.030Z,23.28
2019-03-22T13:38:00.605Z,23.42
2019-03-22T13:40:28.277Z,23.45
2019-03-22T13:42:55.988Z,23.36
2019-03-22T13:45:25.151Z,23.47
2019-03-22T13:48:10.954Z,23.56
2019-03-22T13:50:38.982Z,23.59
2019-03-22T13:53:06.628Z,23.77
2019-03-22T13:55:34.271Z,23.63
2019-03-22T13:58:01.967Z,23.58
2019-03-22T14:00:29.644Z,23.63
2019-03-22T14:03:03.157Z,23.56
2019-03-22T14:05:26.736Z,23.67
2019-03-22T14:07:54.377Z,23.78
2019-03-22T14:10:29.968Z,23.91
2019-03-22T14:12:58.097Z,23.83
2019-03-22T14:15:25.697Z,23.57
2019-03-22T14:17:53.315Z,23.37
2019-03-22T14:20:20.959Z,23.24
2019-03-22T14:22:48.525Z,23.21
2019-03-22T14:25:16.134Z,23.29
2019-03-22T14:27:43.761Z,23.38
2019-03-22T14:30:11.376Z,23.15
2019-03-22T14:32:38.977Z,22.87
2019-03-22T14:35:06.722Z,22.68
2019-03-22T14:37:34.297Z,22.54
2019-03-22T14:40:01.898Z,22.56
2019-03-22T14:42:29.734Z,22.51
2019-03-22T14:44:57.327Z,22.38
2019-03-22T14:47:24.943Z,22.15
2019-03-22T14:49:52.600Z,21.99
2019-03-22T14:52:20.201Z,21.94
2019-03-22T14:54:47.799Z,21.82
2019-03-22T14:57:15.462Z,21.75
2019-03-22T14:59:43.245Z,21.82
2019-03-22T15:02:11.016Z,21.80
2019-03-22T15:04:38.770Z,21.67
2019-03-22T15:07:06.832Z,21.69
2019-03-22T15:09:34.435Z,21.57
2019-03-22T15:12:06.639Z,21.56
2019-03-22T15:14:56.387Z,21.60
2019-03-22T15:17:49.454Z,21.37
2019-03-22T15:20:36.622Z,21.26
2019-03-22T15:23:27.081Z,21.23
2019-03-22T15:29:23.592Z,21.21
2019-03-22T15:32:16.793Z,21.23
2019-03-22T15:35:02.921Z,21.29
2019-03-22T15:37:48.963Z,21.35
2019-03-22T15:40:16.709Z,21.34
2019-03-22T15:42:44.565Z,21.15
2019-03-22T15:45:12.839Z,21.13
2019-03-22T15:47:40.469Z,21.15
2019-03-22T15:50:44.226Z,21.04
2019-03-22T15:53:11.879Z,20.91
2019-03-22T15:55:39.482Z,20.85
2019-03-22T15:58:07.132Z,20.85
2019-03-22T16:00:34.725Z,20.75
2019-03-22T16:03:02.299Z,20.88
2019-03-22T16:05:32.726Z,20.86
2019-03-22T16:08:00.430Z,20.88
2019-03-22T16:10:28.060Z,20.88
2019-03-22T16:12:55.699Z,20.89
2019-03-22T16:15:23.302Z,20.83
2019-03-22T16:17:50.969Z,20.75
2019-03-22T16:20:21.661Z,20.72
2019-03-22T16:22:50.513Z,20.68
2019-03-22T16:25:18.165Z,20.60
2019-03-22T16:27:45.920Z,20.43
2019-03-22T16:30:13.720Z,20.27
2019-03-22T16:32:41.539Z,20.16
2019-03-22T16:35:09.617Z,20.17
2019-03-22T16:37:37.199Z,20.12
2019-03-22T16:40:05.516Z,19.99
2019-03-22T16:42:33.124Z,19.96
2019-03-22T16:45:07.789Z,19.90
2019-03-22T16:47:35.633Z,19.72
2019-03-22T16:50:06.209Z,19.63
2019-03-22T16:52:33.832Z,19.52
2019-03-22T16:55:01.434Z,19.35
2019-03-22T16:57:29.019Z,19.12
2019-03-22T16:59:56.769Z,18.96
2019-03-22T17:02:25.841Z,18.74
2019-03-22T17:04:53.426Z,18.59
2019-03-22T17:07:21.099Z,18.43
2019-03-22T17:09:50.548Z,18.22
2019-03-22T17:12:19.187Z,18.03
2019-03-22T17:14:46.841Z,17.83
2019-03-22T17:17:14.449Z,17.66
2019-03-22T17:19:42.081Z,17.49
2019-03-22T17:22:09.678Z,17.23
2019-03-22T17:24:37.319Z,16.99
2019-03-22T17:27:05.067Z,16.73
2019-03-22T17:29:32.801Z,16.52
2019-03-22T17:32:00.505Z,16.31
2019-03-22T17:34:28.176Z,16.03
2019-03-22T17:36:55.798Z,15.65
2019-03-22T17:39:23.378Z,15.44
2019-03-22T17:41:50.975Z,15.28
2019-03-22T17:44:19.749Z,15.05
2019-03-22T17:46:47.355Z,14.79
2019-03-22T17:49:14.987Z,14.60
2019-03-22T17:51:42.621Z,14.37
2019-03-22T17:54:10.279Z,14.06
2019-03-22T17:56:37.895Z,13.79
2019-03-22T17:59:05.709Z,13.46
2019-03-22T18:01:33.444Z,13.22
2019-03-22T18:04:01.063Z,13.08
2019-03-22T18:06:28.709Z,12.93
2019-03-22T18:08:56.313Z,12.80
2019-03-22T18:11:24.100Z,12.68
2019-03-22T18:13:51.737Z,12.53
2019-03-22T18:16:19.716Z,12.38
2019-03-22T18:18:47.311Z,12.26
2019-03-22T18:21:15.032Z,12.17
2019-03-22T18:23:42.621Z,12.07
2019-03-22T18:26:10.238Z,11.92
2019-03-22T18:28:37.835Z,11.69
2019-03-22T18:31:05.454Z,11.46
2019-03-22T18:33:33.045Z,11.36
2019-03-22T18:36:00.915Z,11.25
2019-03-22T18:38:28.615Z,11.05
2019-03-22T18:40:56.231Z,10.96
2019-03-22T18:43:23.964Z,10.91
2019-03-22T18:45:51.820Z,10.89
2019-03-22T18:48:19.426Z,10.82
2019-03-22T18:50:56.421Z,10.69
2019-03-22T18:53:16.625Z,10.59
2019-03-22T18:55:51.943Z,10.50
2019-03-22T18:58:19.571Z,10.38
2019-03-22T19:00:49.809Z,10.31
2019-03-22T19:03:17.745Z,10.33
2019-03-22T19:05:45.413Z,10.21
2019-03-22T19:08:13.008Z,10.06
2019-03-22T19:10:40.891Z,9.95
2019-03-22T19:13:08.830Z,9.85
2019-03-22T19:15:36.431Z,9.75
2019-03-22T19:18:04.241Z,9.74
2019-03-22T19:20:31.857Z,9.68
2019-03-22T19:22:59.620Z,9.66
2019-03-22T19:25:27.257Z,9.57
2019-03-22T19:28:02.361Z,9.46
2019-03-22T19:30:30.161Z,9.37
2019-03-22T19:32:57.887Z,9.35
2019-03-22T19:35:25.495Z,9.32
2019-03-22T19:37:53.136Z,9.22
2019-03-22T19:40:20.887Z,9.13
2019-03-22T19:42:48.507Z,9.09
2019-03-22T19:45:17.317Z,9.11
2019-03-22T19:47:44.953Z,9.06
2019-03-22T19:50:13.408Z,8.99
2019-03-22T19:52:43.119Z,9.04
2019-03-22T19:55:12.716Z,9.02
2019-03-22T19:57:40.342Z,8.97
2019-03-22T20:00:08.699Z,8.85
2019-03-22T20:02:36.381Z,8.80
2019-03-22T20:05:05.333Z,8.80
2019-03-22T20:07:33.003Z,8.70
2019-03-22T20:10:00.627Z,8.59
2019-03-22T20:12:30.437Z,8.49
2019-03-22T20:14:58.164Z,8.45
2019-03-22T20:17:25.880Z,8.41
2019-03-22T20:19:53.489Z,8.37
2019-03-22T20:22:21.178Z,8.27
2019-03-22T20:24:48.912Z,8.20
2019-03-22T20:27:16.554Z,8.17
2019-03-22T20:29:44.308Z,8.19
2019-03-22T20:32:12.004Z,8.16
2019-03-22T20:34:39.816Z,8.08
2019-03-22T20:37:43.793Z,8.05
2019-03-22T20:40:12.490Z,8.03
2019-03-22T20:42:40.294Z,7.98
2019-03-22T20:45:08.317Z,7.98
2019-03-22T20:47:35.976Z,7.94
2019-03-22T20:50:04.088Z,7.90
2019-03-22T20:52:31.707Z,7.86
2019-03-22T20:55:07.336Z,7.79
2019-03-22T20:57:35.027Z,7.75
2019-03-22T21:00:03.391Z,7.70
2019-03-22T21:02:31.059Z,7.66
2019-03-22T21:04:58.719Z,7.61
2019-03-22T21:07:26.374Z,7.56
2019-03-22T21:09:54.072Z,7.55
2019-03-22T21:12:21.754Z,7.55
2019-03-22T21:14:49.507Z,7.51
2019-03-22T21:17:29.342Z,7.45
2019-03-22T21:19:56.948Z,7.35
2019-03-22T21:22:24.587Z,7.25
2019-03-22T21:24:52.361Z,7.22
2019-03-22T21:27:19.991Z,7.21
2019-03-22T21:29:47.682Z,7.17
2019-03-22T21:32:15.514Z,7.15
2019-03-22T21:34:44.256Z,7.17
2019-03-22T21:37:12.027Z,7.16
2019-03-22T21:39:39.764Z,7.12
2019-03-22T21:42:07.486Z,7.06
2019-03-22T21:44:35.196Z,7.00
2019-03-22T21:47:51.574Z,6.99
2019-03-22T21:50:19.209Z,7.12
2019-03-22T21:52:46.924Z,7.19
2019-03-22T21:55:14.530Z,7.14
2019-03-22T21:57:42.300Z,7.14
2019-03-22T22:00:10.249Z,7.46
2019-03-22T22:02:37.960Z,7.51
2019-03-22T22:05:06.356Z,7.47
2019-03-22T22:07:34.008Z,7.61
2019-03-22T22:10:01.787Z,7.92
2019-03-22T22:12:29.924Z,8.24
2019-03-22T22:14:57.709Z,8.22
2019-03-22T22:17:25.318Z,8.05
2019-03-22T22:19:52.982Z,7.89
2019-03-22T22:22:20.577Z,7.70
2019-03-22T22:24:48.189Z,7.58
2019-03-22T22:27:15.867Z,7.51
2019-03-22T22:29:43.479Z,7.39
2019-03-22T22:32:11.297Z,7.30
2019-03-22T22:34:39.224Z,7.23
2019-03-22T22:37:08.755Z,7.12
2019-03-22T22:39:36.505Z,7.04
2019-03-22T22:42:04.312Z,7.00
2019-03-22T22:44:31.919Z,6.99
2019-03-22T22:46:59.553Z,6.95
2019-03-22T22:49:27.176Z,6.90
2019-03-22T22:51:54.866Z,6.84
2019-03-22T22:54:22.478Z,6.76
2019-03-22T22:56:50.208Z,6.73
2019-03-22T22:59:24.412Z,6.69
2019-03-22T23:01:53.171Z,6.62
2019-03-22T23:04:22.631Z,6.60
2019-03-22T23:06:50.295Z,6.56
2019-03-22T23:09:17.901Z,6.48
2019-03-22T23:11:45.570Z,6.41
2019-03-22T23:14:13.232Z,6.37
2019-03-22T23:16:40.823Z,6.34
2019-03-22T23:19:08.607Z,6.29
2019-03-22T23:21:36.223Z,6.25
2019-03-22T23:24:05.960Z,6.16
2019-03-22T23:26:33.663Z,6.15
2019-03-22T23:29:01.372Z,6.21
2019-03-22T23:31:29.070Z,6.17
2019-03-22T23:33:56.716Z,6.06
2019-03-22T23:36:24.351Z,6.03
2019-03-22T23:38:51.975Z,6.12
2019-03-22T23:41:23.706Z,6.22
2019-03-22T23:43:51.334Z,6.26
2019-03-22T23:46:19.152Z,6.26
2019-03-22T23:48:46.741Z,6.32
2019-03-22T23:51:14.505Z,6.43
2019-03-22T23:53:42.125Z,6.78
2019-03-22T23:56:09.726Z,7.09
2019-03-22T23:58:37.465Z,7.22
